sensor_id;sensor_type;location;lat;lon;timestamp;temperature;humidity
22071;DHT22;11200;51.488;6.668;2022-07-06T00:02:08;15.10;99.90
22071;DHT22;11200;51.488;6.668;2022-07-06T00:04:34;15.10;99.90
22071;DHT22;11200;51.488;6.668;2022-07-06T00:06:59;15.00;99.90
22071;DHT22;11200;51.488;6.668;2022-07-06T00:09:25;15.00;99.90
22071;DHT22;11200;51.488;6.668;2022-07-06T00:11:50;14.90;99.90
22071;DHT22;11200;51.488;6.668;2022-07-06T00:14:16;15.10;99.90
22071;DHT22;11200;51.488;6.668;2022-07-06T00:16:42;15.00;99.90
22071;DHT22;11200;51.488;6.668;2022-07-06T00:19:07;14.80;99.90
22071;DHT22;11200;51.488;6.668;2022-07-06T00:21:33;14.80;99.90
22071;DHT22;11200;51.488;6.668;2022-07-06T00:23:59;14.70;99.90
22071;DHT22;11200;51.488;6.668;2022-07-06T00:26:25;15.60;99.90
22071;DHT22;11200;51.488;6.668;2022-07-06T00:28:51;14.70;99.90
22071;DHT22;11200;51.488;6.668;2022-07-06T00:31:16;14.60;99.90
22071;DHT22;11200;51.488;6.668;2022-07-06T00:33:42;14.60;99.90
22071;DHT22;11200;51.488;6.668;2022-07-06T00:36:08;14.50;99.90
22071;DHT22;11200;51.488;6.668;2022-07-06T00:38:33;14.50;99.90
22071;DHT22;11200;51.488;6.668;2022-07-06T00:40:59;14.40;99.90
22071;DHT22;11200;51.488;6.668;2022-07-06T00:43:24;14.40;99.90
22071;DHT22;11200;51.488;6.668;2022-07-06T00:45:50;14.30;99.90
22071;DHT22;11200;51.488;6.668;2022-07-06T00:48:16;14.30;99.90
22071;DHT22;11200;51.488;6.668;2022-07-06T00:50:42;14.20;99.90
22071;DHT22;11200;51.488;6.668;2022-07-06T00:53:08;14.30;99.90
22071;DHT22;11200;51.488;6.668;2022-07-06T00:55:36;14.20;99.90
22071;DHT22;11200;51.488;6.668;2022-07-06T00:58:05;14.20;99.90
22071;DHT22;11200;51.488;6.668;2022-07-06T01:00:34;14.10;99.90
22071;DHT22;11200;51.488;6.668;2022-07-06T01:03:00;14.10;99.90
22071;DHT22;11200;51.488;6.668;2022-07-06T01:05:26;14.00;99.90
22071;DHT22;11200;51.488;6.668;2022-07-06T01:07:53;14.00;99.90
22071;DHT22;11200;51.488;6.668;2022-07-06T01:10:20;14.00;99.90
22071;DHT22;11200;51.488;6.668;2022-07-06T01:12:47;13.90;99.90
22071;DHT22;11200;51.488;6.668;2022-07-06T01:15:15;13.90;99.90
22071;DHT22;11200;51.488;6.668;2022-07-06T01:17:42;13.90;99.90
22071;DHT22;11200;51.488;6.668;2022-07-06T01:20:19;13.80;99.90
22071;DHT22;11200;51.488;6.668;2022-07-06T01:22:46;13.80;99.90
22071;DHT22;11200;51.488;6.668;2022-07-06T01:25:13;13.80;99.90
22071;DHT22;11200;51.488;6.668;2022-07-06T01:27:40;13.80;99.90
22071;DHT22;11200;51.488;6.668;2022-07-06T01:30:17;13.70;99.90
22071;DHT22;11200;51.488;6.668;2022-07-06T01:32:44;13.70;99.90
22071;DHT22;11200;51.488;6.668;2022-07-06T01:35:12;13.80;99.90
22071;DHT22;11200;51.488;6.668;2022-07-06T01:37:38;13.60;99.90
22071;DHT22;11200;51.488;6.668;2022-07-06T01:40:06;13.60;99.90
22071;DHT22;11200;51.488;6.668;2022-07-06T01:42:32;13.60;99.90
22071;DHT22;11200;51.488;6.668;2022-07-06T01:44:57;13.50;99.90
22071;DHT22;11200;51.488;6.668;2022-07-06T01:47:23;13.50;99.90
22071;DHT22;11200;51.488;6.668;2022-07-06T01:49:49;13.50;99.90
22071;DHT22;11200;51.488;6.668;2022-07-06T01:52:15;13.50;99.90
22071;DHT22;11200;51.488;6.668;2022-07-06T01:54:41;13.50;99.90
22071;DHT22;11200;51.488;6.668;2022-07-06T01:57:06;13.40;99.90
22071;DHT22;11200;51.488;6.668;2022-07-06T01:59:32;13.40;99.90
22071;DHT22;11200;51.488;6.668;2022-07-06T02:01:58;13.40;99.90
22071;DHT22;11200;51.488;6.668;2022-07-06T02:04:23;13.40;99.90
22071;DHT22;11200;51.488;6.668;2022-07-06T02:06:49;13.40;99.90
22071;DHT22;11200;51.488;6.668;2022-07-06T02:09:14;13.30;99.90
22071;DHT22;11200;51.488;6.668;2022-07-06T02:11:41;13.30;99.90
22071;DHT22;11200;51.488;6.668;2022-07-06T02:14:06;13.20;99.90
22071;DHT22;11200;51.488;6.668;2022-07-06T02:16:32;13.30;99.90
22071;DHT22;11200;51.488;6.668;2022-07-06T02:18:57;13.20;99.90
22071;DHT22;11200;51.488;6.668;2022-07-06T02:21:23;13.30;99.90
22071;DHT22;11200;51.488;6.668;2022-07-06T02:23:49;13.30;99.90
22071;DHT22;11200;51.488;6.668;2022-07-06T02:26:14;13.90;99.90
22071;DHT22;11200;51.488;6.668;2022-07-06T02:28:40;13.10;99.90
22071;DHT22;11200;51.488;6.668;2022-07-06T02:31:05;13.10;99.90
22071;DHT22;11200;51.488;6.668;2022-07-06T02:33:31;13.10;99.90
22071;DHT22;11200;51.488;6.668;2022-07-06T02:35:57;13.10;99.90
22071;DHT22;11200;51.488;6.668;2022-07-06T02:38:22;13.10;99.90
22071;DHT22;11200;51.488;6.668;2022-07-06T02:40:48;13.00;99.90
22071;DHT22;11200;51.488;6.668;2022-07-06T02:43:14;12.90;99.90
22071;DHT22;11200;51.488;6.668;2022-07-06T02:45:39;13.00;99.90
22071;DHT22;11200;51.488;6.668;2022-07-06T02:48:05;13.00;99.90
22071;DHT22;11200;51.488;6.668;2022-07-06T02:50:31;12.90;99.90
22071;DHT22;11200;51.488;6.668;2022-07-06T02:52:56;12.90;99.90
22071;DHT22;11200;51.488;6.668;2022-07-06T02:55:23;12.80;99.90
22071;DHT22;11200;51.488;6.668;2022-07-06T02:57:49;12.80;99.90
22071;DHT22;11200;51.488;6.668;2022-07-06T03:00:15;12.80;99.90
22071;DHT22;11200;51.488;6.668;2022-07-06T03:02:41;12.80;99.90
22071;DHT22;11200;51.488;6.668;2022-07-06T03:05:07;12.70;99.90
22071;DHT22;11200;51.488;6.668;2022-07-06T03:07:33;12.80;99.90
22071;DHT22;11200;51.488;6.668;2022-07-06T03:09:58;12.70;99.90
22071;DHT22;11200;51.488;6.668;2022-07-06T03:12:24;12.70;99.90
22071;DHT22;11200;51.488;6.668;2022-07-06T03:14:50;12.70;99.90
22071;DHT22;11200;51.488;6.668;2022-07-06T03:17:15;12.60;99.90
22071;DHT22;11200;51.488;6.668;2022-07-06T03:19:41;12.60;99.90
22071;DHT22;11200;51.488;6.668;2022-07-06T03:22:06;12.60;99.90
22071;DHT22;11200;51.488;6.668;2022-07-06T03:24:32;12.60;99.90
22071;DHT22;11200;51.488;6.668;2022-07-06T03:26:57;12.60;99.90
22071;DHT22;11200;51.488;6.668;2022-07-06T03:29:25;12.60;99.90
22071;DHT22;11200;51.488;6.668;2022-07-06T03:31:54;12.60;99.90
22071;DHT22;11200;51.488;6.668;2022-07-06T03:34:20;12.60;99.90
22071;DHT22;11200;51.488;6.668;2022-07-06T03:36:45;12.60;99.90
22071;DHT22;11200;51.488;6.668;2022-07-06T03:39:11;12.80;99.90
22071;DHT22;11200;51.488;6.668;2022-07-06T03:41:36;12.70;99.90
22071;DHT22;11200;51.488;6.668;2022-07-06T03:44:02;12.60;99.90
22071;DHT22;11200;51.488;6.668;2022-07-06T03:46:28;12.50;99.90
22071;DHT22;11200;51.488;6.668;2022-07-06T03:48:54;12.50;99.90
22071;DHT22;11200;51.488;6.668;2022-07-06T03:51:19;12.50;99.90
22071;DHT22;11200;51.488;6.668;2022-07-06T03:53:45;12.50;99.90
22071;DHT22;11200;51.488;6.668;2022-07-06T03:56:11;12.50;99.90
22071;DHT22;11200;51.488;6.668;2022-07-06T03:58:59;12.50;99.90
22071;DHT22;11200;51.488;6.668;2022-07-06T04:01:25;12.50;99.90
22071;DHT22;11200;51.488;6.668;2022-07-06T04:03:51;12.50;99.90
22071;DHT22;11200;51.488;6.668;2022-07-06T04:06:17;12.50;99.90
22071;DHT22;11200;51.488;6.668;2022-07-06T04:08:43;12.50;99.90
22071;DHT22;11200;51.488;6.668;2022-07-06T04:11:08;12.70;99.90
22071;DHT22;11200;51.488;6.668;2022-07-06T04:13:34;13.10;99.90
22071;DHT22;11200;51.488;6.668;2022-07-06T04:16:00;12.60;99.90
22071;DHT22;11200;51.488;6.668;2022-07-06T04:18:25;12.50;99.90
22071;DHT22;11200;51.488;6.668;2022-07-06T04:20:51;12.60;99.90
22071;DHT22;11200;51.488;6.668;2022-07-06T04:23:17;12.60;99.90
22071;DHT22;11200;51.488;6.668;2022-07-06T04:25:42;12.60;99.90
22071;DHT22;11200;51.488;6.668;2022-07-06T04:28:08;12.60;99.90
22071;DHT22;11200;51.488;6.668;2022-07-06T04:30:34;12.80;99.90
22071;DHT22;11200;51.488;6.668;2022-07-06T04:32:59;12.70;99.90
22071;DHT22;11200;51.488;6.668;2022-07-06T04:35:25;12.70;99.90
22071;DHT22;11200;51.488;6.668;2022-07-06T04:37:50;12.70;99.90
22071;DHT22;11200;51.488;6.668;2022-07-06T04:40:16;12.80;99.90
22071;DHT22;11200;51.488;6.668;2022-07-06T04:42:41;12.90;99.90
22071;DHT22;11200;51.488;6.668;2022-07-06T04:45:08;12.80;99.90
22071;DHT22;11200;51.488;6.668;2022-07-06T04:47:34;12.80;99.90
22071;DHT22;11200;51.488;6.668;2022-07-06T04:50:01;12.90;99.90
22071;DHT22;11200;51.488;6.668;2022-07-06T04:52:26;12.90;99.90
22071;DHT22;11200;51.488;6.668;2022-07-06T04:54:54;12.90;99.90
22071;DHT22;11200;51.488;6.668;2022-07-06T04:57:20;13.00;99.90
22071;DHT22;11200;51.488;6.668;2022-07-06T04:59:46;13.10;99.90
22071;DHT22;11200;51.488;6.668;2022-07-06T05:02:11;13.10;99.90
22071;DHT22;11200;51.488;6.668;2022-07-06T05:04:37;13.10;99.90
22071;DHT22;11200;51.488;6.668;2022-07-06T05:07:03;13.20;99.90
22071;DHT22;11200;51.488;6.668;2022-07-06T05:09:29;13.20;99.90
22071;DHT22;11200;51.488;6.668;2022-07-06T05:11:55;13.20;99.90
22071;DHT22;11200;51.488;6.668;2022-07-06T05:14:20;13.30;99.90
22071;DHT22;11200;51.488;6.668;2022-07-06T05:16:46;13.30;99.90
22071;DHT22;11200;51.488;6.668;2022-07-06T05:19:11;13.40;99.90
22071;DHT22;11200;51.488;6.668;2022-07-06T05:21:37;13.50;99.90
22071;DHT22;11200;51.488;6.668;2022-07-06T05:24:03;13.50;99.90
22071;DHT22;11200;51.488;6.668;2022-07-06T05:26:29;13.50;99.90
22071;DHT22;11200;51.488;6.668;2022-07-06T05:28:55;14.50;99.90
22071;DHT22;11200;51.488;6.668;2022-07-06T05:31:21;13.70;99.90
22071;DHT22;11200;51.488;6.668;2022-07-06T05:33:47;14.00;99.90
22071;DHT22;11200;51.488;6.668;2022-07-06T05:36:13;13.80;99.90
22071;DHT22;11200;51.488;6.668;2022-07-06T05:38:38;13.80;99.90
22071;DHT22;11200;51.488;6.668;2022-07-06T05:41:04;14.10;99.90
22071;DHT22;11200;51.488;6.668;2022-07-06T05:43:29;13.90;99.90
22071;DHT22;11200;51.488;6.668;2022-07-06T05:45:55;13.90;99.90
22071;DHT22;11200;51.488;6.668;2022-07-06T05:48:20;14.00;99.90
22071;DHT22;11200;51.488;6.668;2022-07-06T05:51:05;14.10;99.90
22071;DHT22;11200;51.488;6.668;2022-07-06T05:53:30;14.10;99.90
22071;DHT22;11200;51.488;6.668;2022-07-06T05:55:56;14.20;99.90
22071;DHT22;11200;51.488;6.668;2022-07-06T05:58:22;14.30;99.90
22071;DHT22;11200;51.488;6.668;2022-07-06T06:00:49;14.30;99.90
22071;DHT22;11200;51.488;6.668;2022-07-06T06:03:16;14.30;99.90
22071;DHT22;11200;51.488;6.668;2022-07-06T06:05:41;14.50;99.90
22071;DHT22;11200;51.488;6.668;2022-07-06T06:08:07;14.50;99.90
22071;DHT22;11200;51.488;6.668;2022-07-06T06:10:32;14.60;99.90
22071;DHT22;11200;51.488;6.668;2022-07-06T06:12:58;14.60;99.90
22071;DHT22;11200;51.488;6.668;2022-07-06T06:15:24;14.60;99.90
22071;DHT22;11200;51.488;6.668;2022-07-06T06:17:49;14.70;99.90
22071;DHT22;11200;51.488;6.668;2022-07-06T06:20:15;14.80;99.90
22071;DHT22;11200;51.488;6.668;2022-07-06T06:22:47;14.70;99.90
22071;DHT22;11200;51.488;6.668;2022-07-06T06:25:15;14.90;99.90
22071;DHT22;11200;51.488;6.668;2022-07-06T06:27:41;15.00;99.90
22071;DHT22;11200;51.488;6.668;2022-07-06T06:30:07;14.90;99.90
22071;DHT22;11200;51.488;6.668;2022-07-06T06:32:33;15.00;99.90
22071;DHT22;11200;51.488;6.668;2022-07-06T06:34:59;15.10;99.90
22071;DHT22;11200;51.488;6.668;2022-07-06T06:37:24;15.10;99.90
22071;DHT22;11200;51.488;6.668;2022-07-06T06:39:50;15.20;99.90
22071;DHT22;11200;51.488;6.668;2022-07-06T06:42:16;15.40;99.90
22071;DHT22;11200;51.488;6.668;2022-07-06T06:44:41;15.30;99.90
22071;DHT22;11200;51.488;6.668;2022-07-06T06:47:07;15.50;99.90
22071;DHT22;11200;51.488;6.668;2022-07-06T06:49:32;15.40;99.90
22071;DHT22;11200;51.488;6.668;2022-07-06T06:51:58;15.50;99.90
22071;DHT22;11200;51.488;6.668;2022-07-06T06:54:23;15.50;99.90
22071;DHT22;11200;51.488;6.668;2022-07-06T06:56:49;15.70;99.90
22071;DHT22;11200;51.488;6.668;2022-07-06T06:59:14;15.80;99.90
22071;DHT22;11200;51.488;6.668;2022-07-06T07:01:40;15.90;99.90
22071;DHT22;11200;51.488;6.668;2022-07-06T07:04:06;15.90;99.90
22071;DHT22;11200;51.488;6.668;2022-07-06T07:06:32;16.00;99.90
22071;DHT22;11200;51.488;6.668;2022-07-06T07:08:57;16.10;99.90
22071;DHT22;11200;51.488;6.668;2022-07-06T07:11:23;16.20;99.90
22071;DHT22;11200;51.488;6.668;2022-07-06T07:13:49;16.30;99.90
22071;DHT22;11200;51.488;6.668;2022-07-06T07:16:14;16.30;99.90
22071;DHT22;11200;51.488;6.668;2022-07-06T07:18:40;16.50;99.90
22071;DHT22;11200;51.488;6.668;2022-07-06T07:21:06;16.60;99.90
22071;DHT22;11200;51.488;6.668;2022-07-06T07:23:31;16.60;99.90
22071;DHT22;11200;51.488;6.668;2022-07-06T07:25:57;16.70;99.90
22071;DHT22;11200;51.488;6.668;2022-07-06T07:28:22;16.80;99.90
22071;DHT22;11200;51.488;6.668;2022-07-06T07:30:48;16.90;99.90
22071;DHT22;11200;51.488;6.668;2022-07-06T07:33:16;17.00;99.90
22071;DHT22;11200;51.488;6.668;2022-07-06T07:35:42;17.10;99.90
22071;DHT22;11200;51.488;6.668;2022-07-06T07:38:07;17.10;99.90
22071;DHT22;11200;51.488;6.668;2022-07-06T07:40:33;17.20;99.90
22071;DHT22;11200;51.488;6.668;2022-07-06T07:43:00;17.30;99.90
22071;DHT22;11200;51.488;6.668;2022-07-06T07:45:26;17.40;99.90
22071;DHT22;11200;51.488;6.668;2022-07-06T07:47:52;17.50;99.90
22071;DHT22;11200;51.488;6.668;2022-07-06T07:50:17;17.70;99.90
22071;DHT22;11200;51.488;6.668;2022-07-06T07:52:43;17.70;99.90
22071;DHT22;11200;51.488;6.668;2022-07-06T07:55:09;17.80;99.90
22071;DHT22;11200;51.488;6.668;2022-07-06T07:57:35;17.90;99.90
22071;DHT22;11200;51.488;6.668;2022-07-06T08:00:00;18.00;99.90
22071;DHT22;11200;51.488;6.668;2022-07-06T08:02:26;18.20;99.90
22071;DHT22;11200;51.488;6.668;2022-07-06T08:04:52;18.30;99.90
22071;DHT22;11200;51.488;6.668;2022-07-06T08:07:18;18.50;99.90
22071;DHT22;11200;51.488;6.668;2022-07-06T08:09:43;18.60;99.90
22071;DHT22;11200;51.488;6.668;2022-07-06T08:12:09;18.70;99.90
22071;DHT22;11200;51.488;6.668;2022-07-06T08:14:35;18.90;99.90
22071;DHT22;11200;51.488;6.668;2022-07-06T08:17:03;19.00;99.90
22071;DHT22;11200;51.488;6.668;2022-07-06T08:19:28;19.10;99.90
22071;DHT22;11200;51.488;6.668;2022-07-06T08:21:56;19.10;99.90
22071;DHT22;11200;51.488;6.668;2022-07-06T08:24:22;19.10;99.90
22071;DHT22;11200;51.488;6.668;2022-07-06T08:26:47;19.10;99.90
22071;DHT22;11200;51.488;6.668;2022-07-06T08:29:13;19.10;99.90
22071;DHT22;11200;51.488;6.668;2022-07-06T08:31:39;19.10;99.90
22071;DHT22;11200;51.488;6.668;2022-07-06T08:34:04;19.10;99.90
22071;DHT22;11200;51.488;6.668;2022-07-06T08:36:30;19.10;99.90
22071;DHT22;11200;51.488;6.668;2022-07-06T08:38:56;19.20;99.90
22071;DHT22;11200;51.488;6.668;2022-07-06T08:41:24;19.30;99.90
22071;DHT22;11200;51.488;6.668;2022-07-06T08:43:51;19.40;99.90
22071;DHT22;11200;51.488;6.668;2022-07-06T08:46:18;19.60;99.90
22071;DHT22;11200;51.488;6.668;2022-07-06T08:48:44;19.70;99.90
22071;DHT22;11200;51.488;6.668;2022-07-06T08:51:13;19.60;99.90
22071;DHT22;11200;51.488;6.668;2022-07-06T08:53:40;19.70;99.90
22071;DHT22;11200;51.488;6.668;2022-07-06T08:56:06;19.70;99.90
22071;DHT22;11200;51.488;6.668;2022-07-06T08:58:32;19.70;99.90
22071;DHT22;11200;51.488;6.668;2022-07-06T09:00:58;19.70;99.90
22071;DHT22;11200;51.488;6.668;2022-07-06T09:03:25;19.70;99.90
22071;DHT22;11200;51.488;6.668;2022-07-06T09:05:52;19.80;99.90
22071;DHT22;11200;51.488;6.668;2022-07-06T09:08:18;19.70;99.90
22071;DHT22;11200;51.488;6.668;2022-07-06T09:10:44;19.70;99.90
22071;DHT22;11200;51.488;6.668;2022-07-06T09:13:10;19.70;99.90
22071;DHT22;11200;51.488;6.668;2022-07-06T09:15:37;19.80;99.90
22071;DHT22;11200;51.488;6.668;2022-07-06T09:18:06;19.80;99.90
22071;DHT22;11200;51.488;6.668;2022-07-06T09:20:33;19.90;99.90
22071;DHT22;11200;51.488;6.668;2022-07-06T09:23:00;19.90;99.90
22071;DHT22;11200;51.488;6.668;2022-07-06T09:25:26;20.10;99.90
22071;DHT22;11200;51.488;6.668;2022-07-06T09:27:53;20.20;99.90
22071;DHT22;11200;51.488;6.668;2022-07-06T09:30:22;20.40;99.90
22071;DHT22;11200;51.488;6.668;2022-07-06T09:32:51;20.70;99.90
22071;DHT22;11200;51.488;6.668;2022-07-06T09:35:37;20.90;99.90
22071;DHT22;11200;51.488;6.668;2022-07-06T09:38:11;21.20;99.90
22071;DHT22;11200;51.488;6.668;2022-07-06T09:40:39;21.50;99.90
22071;DHT22;11200;51.488;6.668;2022-07-06T09:43:09;21.80;99.90
22071;DHT22;11200;51.488;6.668;2022-07-06T09:45:35;22.10;99.90
22071;DHT22;11200;51.488;6.668;2022-07-06T09:48:22;22.40;99.90
22071;DHT22;11200;51.488;6.668;2022-07-06T09:50:58;22.70;99.90
22071;DHT22;11200;51.488;6.668;2022-07-06T09:53:26;23.00;99.90
22071;DHT22;11200;51.488;6.668;2022-07-06T09:55:54;23.20;99.90
22071;DHT22;11200;51.488;6.668;2022-07-06T09:58:21;23.30;99.90
22071;DHT22;11200;51.488;6.668;2022-07-06T10:00:47;23.40;99.90
22071;DHT22;11200;51.488;6.668;2022-07-06T10:03:14;23.40;99.90
22071;DHT22;11200;51.488;6.668;2022-07-06T10:05:47;23.50;99.90
22071;DHT22;11200;51.488;6.668;2022-07-06T10:08:14;23.50;99.90
22071;DHT22;11200;51.488;6.668;2022-07-06T10:10:41;23.50;99.90
22071;DHT22;11200;51.488;6.668;2022-07-06T10:13:08;23.50;99.90
22071;DHT22;11200;51.488;6.668;2022-07-06T10:15:36;23.60;99.90
22071;DHT22;11200;51.488;6.668;2022-07-06T10:18:05;23.70;99.90
22071;DHT22;11200;51.488;6.668;2022-07-06T10:20:34;23.90;99.90
22071;DHT22;11200;51.488;6.668;2022-07-06T10:23:03;24.10;99.90
22071;DHT22;11200;51.488;6.668;2022-07-06T10:25:29;24.40;99.90
22071;DHT22;11200;51.488;6.668;2022-07-06T10:27:56;24.60;99.90
22071;DHT22;11200;51.488;6.668;2022-07-06T10:30:22;24.70;99.90
22071;DHT22;11200;51.488;6.668;2022-07-06T10:32:52;24.90;99.90
22071;DHT22;11200;51.488;6.668;2022-07-06T10:35:20;25.10;99.90
22071;DHT22;11200;51.488;6.668;2022-07-06T10:37:46;25.20;99.90
22071;DHT22;11200;51.488;6.668;2022-07-06T10:40:41;25.20;99.90
22071;DHT22;11200;51.488;6.668;2022-07-06T10:45:58;25.10;99.90
22071;DHT22;11200;51.488;6.668;2022-07-06T10:48:23;25.00;99.90
22071;DHT22;11200;51.488;6.668;2022-07-06T10:50:53;25.00;99.90
22071;DHT22;11200;51.488;6.668;2022-07-06T10:53:25;25.00;99.90
22071;DHT22;11200;51.488;6.668;2022-07-06T10:55:53;25.10;99.90
22071;DHT22;11200;51.488;6.668;2022-07-06T10:58:47;25.10;99.90
22071;DHT22;11200;51.488;6.668;2022-07-06T11:01:14;25.20;99.90
22071;DHT22;11200;51.488;6.668;2022-07-06T11:06:10;25.20;99.90
22071;DHT22;11200;51.488;6.668;2022-07-06T11:09:02;25.20;99.90
22071;DHT22;11200;51.488;6.668;2022-07-06T11:14:07;25.10;99.90
22071;DHT22;11200;51.488;6.668;2022-07-06T11:16:59;25.00;99.90
22071;DHT22;11200;51.488;6.668;2022-07-06T11:19:27;25.00;99.90
22071;DHT22;11200;51.488;6.668;2022-07-06T11:21:55;24.90;99.90
22071;DHT22;11200;51.488;6.668;2022-07-06T11:24:27;24.80;99.90
22071;DHT22;11200;51.488;6.668;2022-07-06T11:26:54;24.70;99.90
22071;DHT22;11200;51.488;6.668;2022-07-06T11:29:22;24.70;99.90
22071;DHT22;11200;51.488;6.668;2022-07-06T11:31:50;24.70;99.90
22071;DHT22;11200;51.488;6.668;2022-07-06T11:34:25;24.70;99.90
22071;DHT22;11200;51.488;6.668;2022-07-06T11:37:02;24.60;99.90
22071;DHT22;11200;51.488;6.668;2022-07-06T11:39:39;24.60;99.90
22071;DHT22;11200;51.488;6.668;2022-07-06T11:42:06;24.50;99.90
22071;DHT22;11200;51.488;6.668;2022-07-06T11:44:33;24.50;99.90
22071;DHT22;11200;51.488;6.668;2022-07-06T11:46:59;24.50;99.90
22071;DHT22;11200;51.488;6.668;2022-07-06T11:49:29;24.50;99.90
22071;DHT22;11200;51.488;6.668;2022-07-06T11:51:55;24.50;99.90
22071;DHT22;11200;51.488;6.668;2022-07-06T11:54:22;24.50;99.90
22071;DHT22;11200;51.488;6.668;2022-07-06T11:56:58;24.70;99.90
22071;DHT22;11200;51.488;6.668;2022-07-06T11:59:25;24.60;99.90
22071;DHT22;11200;51.488;6.668;2022-07-06T12:04:35;24.70;99.90
22071;DHT22;11200;51.488;6.668;2022-07-06T12:07:06;24.80;99.90
22071;DHT22;11200;51.488;6.668;2022-07-06T12:09:38;24.80;99.90
22071;DHT22;11200;51.488;6.668;2022-07-06T12:12:04;24.90;99.90
22071;DHT22;11200;51.488;6.668;2022-07-06T12:14:35;24.90;99.90
22071;DHT22;11200;51.488;6.668;2022-07-06T12:17:06;25.00;99.90
22071;DHT22;11200;51.488;6.668;2022-07-06T12:19:33;25.00;99.90
22071;DHT22;11200;51.488;6.668;2022-07-06T12:21:59;25.10;99.90
22071;DHT22;11200;51.488;6.668;2022-07-06T12:24:28;25.10;99.90
22071;DHT22;11200;51.488;6.668;2022-07-06T12:26:56;25.10;99.90
22071;DHT22;11200;51.488;6.668;2022-07-06T12:29:22;25.10;99.90
22071;DHT22;11200;51.488;6.668;2022-07-06T12:31:55;25.20;99.90
22071;DHT22;11200;51.488;6.668;2022-07-06T12:34:26;25.20;99.90
22071;DHT22;11200;51.488;6.668;2022-07-06T12:36:55;25.20;99.90
22071;DHT22;11200;51.488;6.668;2022-07-06T12:39:26;25.20;99.90
22071;DHT22;11200;51.488;6.668;2022-07-06T12:41:54;25.30;99.90
22071;DHT22;11200;51.488;6.668;2022-07-06T12:44:23;25.30;99.90
22071;DHT22;11200;51.488;6.668;2022-07-06T12:46:50;25.30;99.90
22071;DHT22;11200;51.488;6.668;2022-07-06T12:49:23;25.40;99.90
22071;DHT22;11200;51.488;6.668;2022-07-06T12:54:27;25.50;99.90
22071;DHT22;11200;51.488;6.668;2022-07-06T12:59:27;25.60;99.90
22071;DHT22;11200;51.488;6.668;2022-07-06T13:01:53;25.70;99.90
22071;DHT22;11200;51.488;6.668;2022-07-06T13:04:24;25.70;99.90
22071;DHT22;11200;51.488;6.668;2022-07-06T13:06:50;25.70;99.90
22071;DHT22;11200;51.488;6.668;2022-07-06T13:09:16;25.70;99.90
22071;DHT22;11200;51.488;6.668;2022-07-06T13:11:42;25.70;99.90
22071;DHT22;11200;51.488;6.668;2022-07-06T13:14:08;25.70;99.90
22071;DHT22;11200;51.488;6.668;2022-07-06T13:16:35;25.80;99.90
22071;DHT22;11200;51.488;6.668;2022-07-06T13:19:01;25.70;99.90
22071;DHT22;11200;51.488;6.668;2022-07-06T13:21:27;25.70;99.90
22071;DHT22;11200;51.488;6.668;2022-07-06T13:23:52;25.70;99.90
22071;DHT22;11200;51.488;6.668;2022-07-06T13:26:18;25.70;99.90
22071;DHT22;11200;51.488;6.668;2022-07-06T13:28:44;25.70;99.90
22071;DHT22;11200;51.488;6.668;2022-07-06T13:31:09;25.70;99.90
22071;DHT22;11200;51.488;6.668;2022-07-06T13:33:35;25.60;99.90
22071;DHT22;11200;51.488;6.668;2022-07-06T13:36:01;25.60;99.90
22071;DHT22;11200;51.488;6.668;2022-07-06T13:38:27;25.60;99.90
22071;DHT22;11200;51.488;6.668;2022-07-06T13:40:53;25.60;99.90
22071;DHT22;11200;51.488;6.668;2022-07-06T13:43:19;25.60;99.90
22071;DHT22;11200;51.488;6.668;2022-07-06T13:45:46;25.70;99.90
22071;DHT22;11200;51.488;6.668;2022-07-06T13:48:12;25.70;99.90
22071;DHT22;11200;51.488;6.668;2022-07-06T13:50:38;25.80;99.90
22071;DHT22;11200;51.488;6.668;2022-07-06T13:53:04;25.80;99.90
22071;DHT22;11200;51.488;6.668;2022-07-06T13:55:31;25.80;99.90
22071;DHT22;11200;51.488;6.668;2022-07-06T13:57:56;25.90;99.90
22071;DHT22;11200;51.488;6.668;2022-07-06T14:00:22;25.90;99.90
22071;DHT22;11200;51.488;6.668;2022-07-06T14:02:48;25.90;99.90
22071;DHT22;11200;51.488;6.668;2022-07-06T14:05:14;25.90;99.90
22071;DHT22;11200;51.488;6.668;2022-07-06T14:07:39;25.90;99.90
22071;DHT22;11200;51.488;6.668;2022-07-06T14:10:05;25.90;99.90
22071;DHT22;11200;51.488;6.668;2022-07-06T14:12:31;25.90;99.90
22071;DHT22;11200;51.488;6.668;2022-07-06T14:14:57;25.90;99.90
22071;DHT22;11200;51.488;6.668;2022-07-06T14:17:22;25.90;99.90
22071;DHT22;11200;51.488;6.668;2022-07-06T14:19:49;25.80;99.90
22071;DHT22;11200;51.488;6.668;2022-07-06T14:22:14;25.80;99.90
22071;DHT22;11200;51.488;6.668;2022-07-06T14:24:40;25.80;99.90
22071;DHT22;11200;51.488;6.668;2022-07-06T14:27:06;25.80;99.90
22071;DHT22;11200;51.488;6.668;2022-07-06T14:29:32;25.60;99.90
22071;DHT22;11200;51.488;6.668;2022-07-06T14:31:57;25.90;99.90
22071;DHT22;11200;51.488;6.668;2022-07-06T14:34:23;25.80;99.90
22071;DHT22;11200;51.488;6.668;2022-07-06T14:36:52;25.80;99.90
22071;DHT22;11200;51.488;6.668;2022-07-06T14:39:17;25.80;99.90
22071;DHT22;11200;51.488;6.668;2022-07-06T14:41:43;25.80;99.90
22071;DHT22;11200;51.488;6.668;2022-07-06T14:44:08;25.80;99.90
22071;DHT22;11200;51.488;6.668;2022-07-06T14:46:34;25.80;99.90
22071;DHT22;11200;51.488;6.668;2022-07-06T14:49:00;25.80;99.90
22071;DHT22;11200;51.488;6.668;2022-07-06T14:51:26;25.80;99.90
22071;DHT22;11200;51.488;6.668;2022-07-06T14:53:52;25.80;99.90
22071;DHT22;11200;51.488;6.668;2022-07-06T14:56:18;25.80;99.90
22071;DHT22;11200;51.488;6.668;2022-07-06T14:58:43;25.70;99.90
22071;DHT22;11200;51.488;6.668;2022-07-06T15:01:09;25.70;99.90
22071;DHT22;11200;51.488;6.668;2022-07-06T15:03:37;25.70;99.90
22071;DHT22;11200;51.488;6.668;2022-07-06T15:06:03;25.70;99.90
22071;DHT22;11200;51.488;6.668;2022-07-06T15:08:32;25.70;99.90
22071;DHT22;11200;51.488;6.668;2022-07-06T15:10:57;25.70;99.90
22071;DHT22;11200;51.488;6.668;2022-07-06T15:13:23;25.70;99.90
22071;DHT22;11200;51.488;6.668;2022-07-06T15:15:48;25.60;99.90
22071;DHT22;11200;51.488;6.668;2022-07-06T15:18:14;25.60;99.90
22071;DHT22;11200;51.488;6.668;2022-07-06T15:20:46;25.60;99.90
22071;DHT22;11200;51.488;6.668;2022-07-06T15:23:12;25.50;99.90
22071;DHT22;11200;51.488;6.668;2022-07-06T15:25:45;25.50;99.90
22071;DHT22;11200;51.488;6.668;2022-07-06T15:28:40;26.20;99.90
22071;DHT22;11200;51.488;6.668;2022-07-06T15:31:16;26.20;99.90
22071;DHT22;11200;51.488;6.668;2022-07-06T15:33:44;25.40;99.90
22071;DHT22;11200;51.488;6.668;2022-07-06T15:38:50;25.60;99.90
22071;DHT22;11200;51.488;6.668;2022-07-06T15:41:16;25.30;99.90
22071;DHT22;11200;51.488;6.668;2022-07-06T15:43:44;25.20;99.90
22071;DHT22;11200;51.488;6.668;2022-07-06T15:46:13;25.00;99.90
22071;DHT22;11200;51.488;6.668;2022-07-06T15:48:47;25.20;99.90